createdAt,value
2017-02-05T00:00:16.210Z,1.5
2017-02-05T00:00:37.492Z,1.5
2017-02-05T00:00:58.779Z,1.5
2017-02-05T00:01:20.064Z,1.5
2017-02-05T00:01:41.355Z,1.5
2017-02-05T00:02:02.626Z,1.5
2017-02-05T00:02:23.913Z,1.5
2017-02-05T00:02:45.193Z,1.5
2017-02-05T00:03:06.482Z,1.6
2017-02-05T00:03:27.782Z,1.5
2017-02-05T00:03:49.119Z,1.5
2017-02-05T00:04:10.404Z,1.6
2017-02-05T00:04:31.681Z,1.5
2017-02-05T00:04:52.970Z,1.5
2017-02-05T00:05:14.257Z,1.5
2017-02-05T00:05:35.533Z,1.5
2017-02-05T00:05:56.815Z,1.5
2017-02-05T00:06:18.106Z,1.5
2017-02-05T00:06:39.376Z,1.5
2017-02-05T00:07:00.652Z,1.5
2017-02-05T00:07:21.980Z,1.5
2017-02-05T00:07:43.295Z,1.5
2017-02-05T00:08:04.574Z,1.5
2017-02-05T00:08:25.869Z,1.5
2017-02-05T00:08:47.190Z,1.5
2017-02-05T00:09:08.486Z,1.5
2017-02-05T00:09:29.769Z,1.5
2017-02-05T00:09:51.049Z,1.5
2017-02-05T00:10:12.348Z,1.5
2017-02-05T00:10:33.669Z,1.5
2017-02-05T00:10:54.966Z,1.5
2017-02-05T00:11:17.063Z,1.5
2017-02-05T00:11:39.222Z,1.5
2017-02-05T00:12:00.515Z,1.5
2017-02-05T00:12:21.807Z,1.5
2017-02-05T00:12:43.103Z,1.5
2017-02-05T00:13:04.381Z,1.6
2017-02-05T00:13:25.667Z,1.5
2017-02-05T00:13:46.952Z,1.5
2017-02-05T00:14:08.237Z,1.5
2017-02-05T00:14:29.536Z,1.5
2017-02-05T00:14:50.866Z,1.6
2017-02-05T00:15:12.193Z,1.5
2017-02-05T00:15:33.506Z,1.5
2017-02-05T00:15:54.801Z,1.5
2017-02-05T00:16:16.092Z,1.5
2017-02-05T00:16:37.377Z,1.5
2017-02-05T00:16:58.651Z,1.4
2017-02-05T00:17:19.976Z,1.5
2017-02-05T00:17:41.775Z,1.5
2017-02-05T00:18:03.065Z,1.6
2017-02-05T00:18:26.086Z,1.5
2017-02-05T00:18:47.375Z,1.5
2017-02-05T00:19:08.661Z,1.5
2017-02-05T00:19:29.948Z,1.5
2017-02-05T00:19:51.220Z,1.4
2017-02-05T00:20:12.490Z,1.4
2017-02-05T00:20:34.590Z,1.5
2017-02-05T00:20:55.861Z,1.5
2017-02-05T00:21:17.175Z,1.5
2017-02-05T00:21:38.502Z,1.5
2017-02-05T00:21:59.788Z,1.5
2017-02-05T00:22:21.740Z,1.5
2017-02-05T00:22:43.023Z,1.6
2017-02-05T00:23:04.301Z,1.5
2017-02-05T00:23:25.569Z,1.5
2017-02-05T00:23:46.862Z,1.5
2017-02-05T00:24:08.212Z,1.5
2017-02-05T00:24:29.511Z,1.5
2017-02-05T00:24:50.810Z,1.5
2017-02-05T00:25:12.100Z,1.5
2017-02-05T00:25:33.410Z,1.5
2017-02-05T00:25:55.363Z,1.5
2017-02-05T00:26:16.669Z,1.6
2017-02-05T00:26:37.951Z,1.5
2017-02-05T00:26:59.245Z,1.6
2017-02-05T00:27:20.525Z,1.6
2017-02-05T00:27:41.813Z,1.5
2017-02-05T00:28:03.097Z,1.6
2017-02-05T00:28:24.385Z,1.6
2017-02-05T00:28:45.666Z,1.6
2017-02-05T00:29:07.782Z,1.5
2017-02-05T00:29:29.078Z,1.4
2017-02-05T00:29:50.354Z,1.5
2017-02-05T00:30:11.632Z,1.5
2017-02-05T00:30:32.918Z,1.5
2017-02-05T00:30:54.186Z,1.5
2017-02-05T00:31:15.471Z,1.6
2017-02-05T00:31:36.770Z,1.5
2017-02-05T00:31:58.063Z,1.6
2017-02-05T00:32:19.544Z,1.5
2017-02-05T00:32:40.856Z,1.5
2017-02-05T00:33:02.135Z,1.6
2017-02-05T00:33:23.421Z,1.6
2017-02-05T00:33:44.738Z,1.5
2017-02-05T00:34:06.039Z,1.6
2017-02-05T00:34:27.319Z,1.5
2017-02-05T00:34:48.599Z,1.5
2017-02-05T00:35:09.894Z,1.5
2017-02-05T00:35:31.196Z,1.5
2017-02-05T00:35:52.474Z,1.5
2017-02-05T00:36:13.762Z,1.6
2017-02-05T00:36:35.060Z,1.5
2017-02-05T00:36:56.349Z,1.5
2017-02-05T00:37:17.662Z,1.5
2017-02-05T00:37:39.175Z,1.5
2017-02-05T00:38:00.498Z,1.6
2017-02-05T00:38:21.764Z,1.5
2017-02-05T00:38:43.037Z,1.5
2017-02-05T00:39:04.959Z,1.5
2017-02-05T00:39:26.281Z,1.5
2017-02-05T00:39:47.567Z,1.5
2017-02-05T00:40:08.853Z,1.4
2017-02-05T00:40:30.130Z,1.5
2017-02-05T00:40:51.414Z,1.5
2017-02-05T00:41:13.236Z,1.5
2017-02-05T00:41:34.510Z,1.5
2017-02-05T00:41:55.802Z,1.5
2017-02-05T00:42:17.081Z,1.5
2017-02-05T00:42:38.388Z,1.5
2017-02-05T00:42:59.681Z,1.5
2017-02-05T00:43:20.976Z,1.5
2017-02-05T00:43:42.286Z,1.5
2017-02-05T00:44:03.573Z,1.5
2017-02-05T00:44:24.871Z,1.6
2017-02-05T00:44:46.147Z,1.6
2017-02-05T00:45:07.435Z,1.6
2017-02-05T00:45:28.720Z,1.6
2017-02-05T00:45:50.007Z,1.6
2017-02-05T00:46:11.293Z,1.6
2017-02-05T00:46:32.566Z,1.7
2017-02-05T00:46:53.861Z,1.6
2017-02-05T00:47:15.130Z,1.7
2017-02-05T00:47:36.407Z,1.6
2017-02-05T00:47:57.689Z,1.6
2017-02-05T00:48:18.997Z,1.7
2017-02-05T00:48:40.285Z,1.6
2017-02-05T00:49:01.581Z,1.6
2017-02-05T00:49:22.855Z,1.7
2017-02-05T00:49:44.147Z,1.6
2017-02-05T00:50:05.429Z,1.6
2017-02-05T00:50:26.717Z,1.6
2017-02-05T00:50:48.014Z,1.7
2017-02-05T00:51:09.321Z,1.6
2017-02-05T00:51:30.614Z,1.6
2017-02-05T00:51:51.884Z,1.6
2017-02-05T00:52:13.195Z,1.7
2017-02-05T00:52:34.485Z,1.6
2017-02-05T00:52:56.356Z,1.7
2017-02-05T00:53:17.640Z,1.7
2017-02-05T00:53:38.926Z,1.7
2017-02-05T00:54:00.231Z,1.6
2017-02-05T00:54:21.519Z,1.6
2017-02-05T00:54:42.826Z,1.6
2017-02-05T00:55:04.133Z,1.7
2017-02-05T00:55:25.426Z,1.6
2017-02-05T00:55:46.753Z,1.7
2017-02-05T00:56:08.046Z,1.6
2017-02-05T00:56:29.319Z,1.6
2017-02-05T00:56:51.334Z,1.7
2017-02-05T00:57:12.614Z,1.6
2017-02-05T00:57:33.890Z,1.6
2017-02-05T00:57:55.175Z,1.6
2017-02-05T00:58:16.453Z,1.7
2017-02-05T00:58:37.741Z,1.6
2017-02-05T00:58:59.002Z,1.7
2017-02-05T00:59:20.300Z,1.6
2017-02-05T00:59:41.578Z,1.6
2017-02-05T01:00:03.794Z,1.8
2017-02-05T01:00:25.084Z,1.8
2017-02-05T01:00:46.383Z,1.7
2017-02-05T01:01:07.668Z,1.7
2017-02-05T01:01:28.946Z,1.7
2017-02-05T01:01:50.234Z,1.7
2017-02-05T01:02:11.516Z,1.7
2017-02-05T01:02:32.802Z,1.7
2017-02-05T01:02:54.123Z,1.7
2017-02-05T01:03:15.409Z,1.8
2017-02-05T01:03:36.691Z,1.8
2017-02-05T01:03:57.989Z,1.7
2017-02-05T01:04:19.272Z,1.7
2017-02-05T01:04:40.564Z,1.8
2017-02-05T01:05:01.893Z,1.8
2017-02-05T01:05:23.175Z,1.8
2017-02-05T01:05:44.453Z,1.8
2017-02-05T01:06:05.732Z,1.9
2017-02-05T01:06:27.026Z,1.7
2017-02-05T01:06:48.310Z,1.8
2017-02-05T01:07:09.604Z,1.8
2017-02-05T01:07:30.888Z,1.8
2017-02-05T01:07:52.218Z,1.8
2017-02-05T01:08:13.498Z,1.8
2017-02-05T01:08:34.783Z,1.8
2017-02-05T01:08:56.079Z,1.9
2017-02-05T01:09:17.380Z,1.8
2017-02-05T01:09:38.664Z,1.8
2017-02-05T01:10:00.745Z,1.8
2017-02-05T01:10:22.054Z,1.9
2017-02-05T01:10:43.321Z,1.8
2017-02-05T01:11:04.641Z,1.8
2017-02-05T01:11:25.945Z,1.9
2017-02-05T01:11:47.268Z,1.9
2017-02-05T01:12:08.556Z,1.9
2017-02-05T01:12:29.828Z,1.9
2017-02-05T01:12:51.107Z,1.9
2017-02-05T01:13:12.380Z,1.9
2017-02-05T01:13:33.660Z,1.8
2017-02-05T01:13:54.955Z,1.9
2017-02-05T01:14:16.242Z,1.9
2017-02-05T01:14:37.527Z,1.9
2017-02-05T01:14:58.802Z,1.8
2017-02-05T01:15:20.110Z,1.9
2017-02-05T01:15:41.391Z,1.8
2017-02-05T01:16:02.683Z,1.9
2017-02-05T01:16:23.953Z,1.9
2017-02-05T01:16:45.246Z,1.9
2017-02-05T01:17:06.582Z,1.9
2017-02-05T01:17:27.865Z,1.9
2017-02-05T01:17:49.151Z,1.9
2017-02-05T01:18:11.165Z,2
2017-02-05T01:18:32.459Z,2
2017-02-05T01:18:53.766Z,1.9
2017-02-05T01:19:15.820Z,1.9
2017-02-05T01:19:37.105Z,1.9
2017-02-05T01:19:58.426Z,1.9
2017-02-05T01:20:19.710Z,1.9
2017-02-05T01:20:41.009Z,1.9
2017-02-05T01:21:02.288Z,1.9
2017-02-05T01:21:23.582Z,1.9
2017-02-05T01:21:44.857Z,1.9
2017-02-05T01:22:06.143Z,1.9
2017-02-05T01:22:27.473Z,1.8
2017-02-05T01:22:48.762Z,1.9
2017-02-05T01:23:10.030Z,2
2017-02-05T01:23:31.331Z,2
2017-02-05T01:23:52.609Z,1.9
2017-02-05T01:24:13.932Z,2
2017-02-05T01:24:35.234Z,1.8
2017-02-05T01:24:56.517Z,2
2017-02-05T01:25:17.819Z,2
2017-02-05T01:25:39.119Z,1.9
2017-02-05T01:26:00.389Z,1.9
2017-02-05T01:26:21.676Z,1.9
2017-02-05T01:26:44.501Z,2
2017-02-05T01:27:05.816Z,1.9
2017-02-05T01:27:27.098Z,2
2017-02-05T01:27:48.390Z,2
2017-02-05T01:28:09.672Z,2
2017-02-05T01:28:30.967Z,2
2017-02-05T01:28:52.247Z,2
2017-02-05T01:29:13.526Z,1.9
2017-02-05T01:29:34.799Z,1.9
2017-02-05T01:29:56.112Z,2
2017-02-05T01:30:18.390Z,1.8
2017-02-05T01:30:39.688Z,2.1
2017-02-05T01:31:00.980Z,2.1
2017-02-05T01:31:22.263Z,1.9
2017-02-05T01:31:43.544Z,2
2017-02-05T01:32:04.821Z,2.1
2017-02-05T01:32:26.099Z,2
2017-02-05T01:32:48.003Z,2
2017-02-05T01:33:09.307Z,2
2017-02-05T01:33:30.580Z,2.2
2017-02-05T01:33:52.522Z,2
2017-02-05T01:34:13.814Z,2.1
2017-02-05T01:34:35.099Z,2.1
2017-02-05T01:34:56.394Z,2
2017-02-05T01:35:17.675Z,2
2017-02-05T01:35:38.960Z,2
2017-02-05T01:36:00.233Z,2.1
2017-02-05T01:36:21.526Z,2
2017-02-05T01:36:42.849Z,2
2017-02-05T01:37:04.120Z,2
2017-02-05T01:37:25.403Z,2
2017-02-05T01:37:46.689Z,2
2017-02-05T01:38:08.797Z,2
2017-02-05T01:38:30.085Z,2
2017-02-05T01:38:51.403Z,2
2017-02-05T01:39:12.678Z,2
2017-02-05T01:39:33.992Z,2.1
2017-02-05T01:39:56.004Z,2.1
2017-02-05T01:40:17.797Z,2
2017-02-05T01:40:39.075Z,2.1
2017-02-05T01:41:00.366Z,2.1
2017-02-05T01:41:22.249Z,2.1
2017-02-05T01:41:43.537Z,2.1
2017-02-05T01:42:04.808Z,2.1
2017-02-05T01:42:26.083Z,2.2
2017-02-05T01:42:47.390Z,2.1
2017-02-05T01:43:08.675Z,2.2
2017-02-05T01:43:29.964Z,2.2
2017-02-05T01:43:51.255Z,2.1
2017-02-05T01:44:12.545Z,2.1
2017-02-05T01:44:33.823Z,2.2
2017-02-05T01:44:55.120Z,2.1
2017-02-05T01:45:17.179Z,2.2
2017-02-05T01:45:38.481Z,2.1
2017-02-05T01:45:59.754Z,2.1
2017-02-05T01:46:21.058Z,2.1
2017-02-05T01:46:43.256Z,2.1
2017-02-05T01:47:04.552Z,2.2
2017-02-05T01:47:26.527Z,2.1
2017-02-05T01:47:47.814Z,2
2017-02-05T01:48:09.110Z,2.1
2017-02-05T01:48:30.390Z,2.1
2017-02-05T01:48:51.685Z,2.1
2017-02-05T01:49:12.963Z,2.1
2017-02-05T01:49:34.248Z,2.1
2017-02-05T01:49:55.541Z,2.2
2017-02-05T01:50:16.829Z,2.1
2017-02-05T01:50:38.116Z,2
2017-02-05T01:51:00.103Z,2.2
2017-02-05T01:51:21.384Z,2.1
2017-02-05T01:51:42.705Z,2.1
2017-02-05T01:52:04.005Z,2.2
2017-02-05T01:52:25.310Z,2.2
2017-02-05T01:52:47.186Z,2.1
2017-02-05T01:53:08.477Z,2.2
2017-02-05T01:53:29.760Z,2.2
2017-02-05T01:53:51.049Z,2.1
2017-02-05T01:54:12.335Z,2.2
2017-02-05T01:54:33.625Z,2.1
2017-02-05T01:54:54.918Z,2.2
2017-02-05T01:55:16.194Z,2.2
2017-02-05T01:55:37.469Z,2.2
2017-02-05T01:55:58.778Z,2.2
2017-02-05T01:56:20.060Z,2.2
2017-02-05T01:56:41.340Z,2.2
2017-02-05T01:57:02.653Z,2.2
2017-02-05T01:57:23.936Z,2.2
2017-02-05T01:57:45.223Z,2.3
2017-02-05T01:58:06.507Z,2.2
2017-02-05T01:58:27.805Z,2.3
2017-02-05T01:58:49.078Z,2.2
2017-02-05T01:59:10.374Z,2.2
2017-02-05T01:59:31.655Z,2.2
2017-02-05T01:59:52.941Z,2.3
2017-02-05T02:00:14.245Z,2.3
2017-02-05T02:00:35.537Z,2.3
2017-02-05T02:00:57.511Z,2.2
2017-02-05T02:01:18.787Z,2.3
2017-02-05T02:01:40.074Z,2.3
2017-02-05T02:02:01.385Z,2.2
2017-02-05T02:02:22.683Z,2.2
2017-02-05T02:02:44.006Z,2.2
2017-02-05T02:03:05.277Z,2.2
2017-02-05T02:03:26.561Z,2.3
2017-02-05T02:03:47.884Z,2.3
2017-02-05T02:04:09.161Z,2.2
2017-02-05T02:04:30.491Z,2.2
2017-02-05T02:04:51.780Z,2.2
2017-02-05T02:05:13.073Z,2.3
2017-02-05T02:05:34.347Z,2.2
2017-02-05T02:05:56.543Z,2.2
2017-02-05T02:06:17.836Z,2.2
2017-02-05T02:06:39.125Z,2.2
2017-02-05T02:07:00.414Z,2.1
2017-02-05T02:07:21.692Z,2.2
2017-02-05T02:07:42.976Z,2.2
2017-02-05T02:08:04.263Z,2.2
2017-02-05T02:08:25.583Z,2.2
2017-02-05T02:08:46.872Z,2.2
2017-02-05T02:09:08.159Z,2.2
2017-02-05T02:09:29.972Z,2.2
2017-02-05T02:09:51.303Z,2.2
2017-02-05T02:10:12.605Z,2.2
2017-02-05T02:10:33.892Z,2.2
2017-02-05T02:10:55.174Z,2.2
2017-02-05T02:11:16.469Z,2.2
2017-02-05T02:11:37.779Z,2.1
2017-02-05T02:11:59.051Z,2.1
2017-02-05T02:12:20.362Z,2.2
2017-02-05T02:12:41.637Z,2.2
2017-02-05T02:13:02.920Z,2.2
2017-02-05T02:13:24.211Z,2.2
2017-02-05T02:13:45.495Z,2.2
2017-02-05T02:14:06.776Z,2.2
2017-02-05T02:14:28.095Z,2.1
2017-02-05T02:14:49.408Z,2.2
2017-02-05T02:15:10.718Z,2.2
2017-02-05T02:15:32.026Z,2.2
2017-02-05T02:15:53.303Z,2.2
2017-02-05T02:16:15.177Z,2.1
2017-02-05T02:16:36.470Z,2.1
2017-02-05T02:16:57.758Z,2.2
2017-02-05T02:17:19.040Z,2.2
2017-02-05T02:17:40.326Z,2.2
2017-02-05T02:18:01.628Z,2.2
2017-02-05T02:18:22.910Z,2.2
2017-02-05T02:18:44.196Z,2.1
2017-02-05T02:19:05.466Z,2.2
2017-02-05T02:19:26.761Z,2.2
2017-02-05T02:19:48.049Z,2.2
2017-02-05T02:20:10.132Z,2.1
2017-02-05T02:20:31.415Z,2.2
2017-02-05T02:20:52.694Z,2.1
2017-02-05T02:21:13.971Z,2.2
2017-02-05T02:21:35.253Z,2.2
2017-02-05T02:21:56.560Z,2.2
2017-02-05T02:22:17.843Z,2.2
2017-02-05T02:22:39.147Z,2.1
2017-02-05T02:23:00.444Z,2.2
2017-02-05T02:23:21.737Z,2.1
2017-02-05T02:23:43.012Z,2.2
2017-02-05T02:24:04.286Z,2.1
2017-02-05T02:24:25.564Z,2.1
2017-02-05T02:24:46.870Z,2.2
2017-02-05T02:25:08.169Z,2.2
2017-02-05T02:25:30.244Z,2.2
2017-02-05T02:25:51.523Z,2.2
2017-02-05T02:26:13.325Z,2.2
2017-02-05T02:26:34.610Z,2.2
2017-02-05T02:26:55.924Z,2.1
2017-02-05T02:27:17.217Z,2.2
2017-02-05T02:27:38.504Z,2.2
2017-02-05T02:27:59.780Z,2.2
2017-02-05T02:28:21.067Z,2.2
2017-02-05T02:28:42.386Z,2.2
2017-02-05T02:29:03.665Z,2.2
2017-02-05T02:29:24.942Z,2.2
2017-02-05T02:29:46.228Z,2.2
2017-02-05T02:30:07.510Z,2.1
2017-02-05T02:30:28.804Z,2.2
2017-02-05T02:30:50.111Z,2.2
2017-02-05T02:31:11.392Z,2.1
2017-02-05T02:31:32.714Z,2.2
2017-02-05T02:31:54.002Z,2.2
2017-02-05T02:32:15.287Z,2.2
2017-02-05T02:32:36.583Z,2.1
2017-02-05T02:32:59.401Z,2.2
2017-02-05T02:33:20.697Z,2.2
2017-02-05T02:33:42.002Z,2.1
2017-02-05T02:34:03.334Z,2.1
2017-02-05T02:34:24.607Z,2.1
2017-02-05T02:34:45.884Z,2.2
2017-02-05T02:35:07.177Z,2.2
2017-02-05T02:35:31.390Z,2.1
2017-02-05T02:35:52.669Z,2.1
2017-02-05T02:36:13.986Z,2.1
2017-02-05T02:36:35.284Z,2.1
2017-02-05T02:36:56.559Z,2.2
2017-02-05T02:37:17.858Z,2.2
2017-02-05T02:37:39.139Z,2.2
2017-02-05T02:38:00.456Z,2.2
2017-02-05T02:38:21.739Z,2.2
2017-02-05T02:38:43.027Z,2.2
2017-02-05T02:39:04.310Z,2.2
2017-02-05T02:39:25.586Z,2.3
2017-02-05T02:39:46.878Z,2.3
2017-02-05T02:40:08.169Z,2.3
2017-02-05T02:40:29.435Z,2.2
2017-02-05T02:40:50.743Z,2.2
2017-02-05T02:41:12.062Z,2.3
2017-02-05T02:41:33.346Z,2.3
2017-02-05T02:41:54.611Z,2.3
2017-02-05T02:42:15.946Z,2.3
2017-02-05T02:42:37.214Z,2.3
2017-02-05T02:42:58.511Z,2.3
2017-02-05T02:43:19.795Z,2.3
2017-02-05T02:43:41.085Z,2.3
2017-02-05T02:44:02.378Z,2.3
2017-02-05T02:44:23.656Z,2.3
2017-02-05T02:44:44.938Z,2.3
2017-02-05T02:45:06.239Z,2.3
2017-02-05T02:45:27.517Z,2.3
2017-02-05T02:45:48.800Z,2.2
2017-02-05T02:46:10.079Z,2.3
2017-02-05T02:46:31.363Z,2.3
2017-02-05T02:46:52.648Z,2.2
2017-02-05T02:47:13.929Z,2.2
2017-02-05T02:47:35.226Z,2.2
2017-02-05T02:47:56.529Z,2.2
2017-02-05T02:48:17.807Z,2.3
2017-02-05T02:48:40.064Z,2.3
2017-02-05T02:49:01.347Z,2.2
2017-02-05T02:49:22.616Z,2.3
2017-02-05T02:49:43.890Z,2.3
2017-02-05T02:50:05.166Z,2.3
2017-02-05T02:50:27.205Z,2.2
2017-02-05T02:50:48.502Z,2.3
2017-02-05T02:51:09.781Z,2.2
2017-02-05T02:51:31.062Z,2.3
2017-02-05T02:51:52.364Z,2.3
2017-02-05T02:52:14.566Z,2.3
2017-02-05T02:52:36.556Z,2.3
2017-02-05T02:52:57.840Z,2.3
2017-02-05T02:53:19.152Z,2.3
2017-02-05T02:53:40.439Z,2.3
2017-02-05T02:54:01.718Z,2.3
2017-02-05T02:54:23.021Z,2.3
2017-02-05T02:54:45.228Z,2.3
2017-02-05T02:55:06.496Z,2.2
2017-02-05T02:55:27.775Z,2.2
2017-02-05T02:55:49.055Z,2.3
2017-02-05T02:56:10.336Z,2.3
2017-02-05T02:56:31.635Z,2.3
2017-02-05T02:56:52.953Z,2.2
2017-02-05T02:57:14.235Z,2.3
2017-02-05T02:57:35.553Z,2.2
2017-02-05T02:57:56.841Z,2.2
2017-02-05T02:58:18.146Z,2.3
2017-02-05T02:58:39.424Z,2.3
2017-02-05T02:59:00.695Z,2.3
2017-02-05T02:59:21.979Z,2.3
2017-02-05T02:59:43.266Z,2.3
2017-02-05T03:00:04.586Z,2.2
2017-02-05T03:00:25.877Z,2.2
2017-02-05T03:00:47.185Z,2.3
2017-02-05T03:01:08.477Z,2.3
2017-02-05T03:01:29.767Z,2.2
2017-02-05T03:01:51.707Z,2.2
2017-02-05T03:02:13.012Z,2.2
2017-02-05T03:02:34.294Z,2.2
2017-02-05T03:02:56.142Z,2.2
2017-02-05T03:03:17.429Z,2.2
2017-02-05T03:03:38.729Z,2.2
2017-02-05T03:04:00.020Z,2.1
2017-02-05T03:04:21.308Z,2.2
2017-02-05T03:04:42.585Z,2.2
2017-02-05T03:05:03.869Z,2.2
2017-02-05T03:05:25.141Z,2.2
2017-02-05T03:05:46.425Z,2.2
2017-02-05T03:06:07.718Z,2.2
2017-02-05T03:06:29.917Z,2.2
2017-02-05T03:06:51.243Z,2.1
2017-02-05T03:07:12.525Z,2.2
2017-02-05T03:07:33.808Z,2.2
2017-02-05T03:07:55.125Z,2.2
2017-02-05T03:08:16.393Z,2.2
2017-02-05T03:08:37.675Z,2.2
2017-02-05T03:08:58.949Z,2.1
2017-02-05T03:09:20.237Z,2.2
2017-02-05T03:09:41.521Z,2.1
2017-02-05T03:10:02.845Z,2.2
2017-02-05T03:10:24.135Z,2.1
2017-02-05T03:10:45.442Z,2.2
2017-02-05T03:11:06.731Z,2.2
2017-02-05T03:11:28.038Z,2.2
2017-02-05T03:11:49.313Z,2.1
2017-02-05T03:12:10.582Z,2.2
2017-02-05T03:12:31.859Z,2.1
2017-02-05T03:12:53.155Z,2.1
2017-02-05T03:13:14.440Z,2.2
2017-02-05T03:13:35.751Z,2.1
2017-02-05T03:13:57.030Z,2.2
2017-02-05T03:14:18.300Z,2
2017-02-05T03:14:39.570Z,2.1
2017-02-05T03:15:00.842Z,2.1
2017-02-05T03:15:22.141Z,2
2017-02-05T03:15:43.432Z,2
2017-02-05T03:16:04.720Z,2.1
2017-02-05T03:16:26.017Z,2.1
2017-02-05T03:16:47.315Z,2
2017-02-05T03:17:08.593Z,2
2017-02-05T03:17:29.893Z,2.1
2017-02-05T03:17:51.175Z,2.2
2017-02-05T03:18:12.490Z,2.1
2017-02-05T03:18:33.776Z,2.1
2017-02-05T03:18:55.071Z,2.1
2017-02-05T03:19:16.372Z,2.2
2017-02-05T03:19:37.657Z,2.2
2017-02-05T03:19:58.944Z,2.2
2017-02-05T03:20:20.221Z,2.1
2017-02-05T03:20:41.480Z,2.2
2017-02-05T03:21:02.760Z,2.2
2017-02-05T03:21:24.060Z,2.2
2017-02-05T03:21:45.353Z,2.1
2017-02-05T03:22:06.634Z,2.1
2017-02-05T03:22:27.926Z,2.2
2017-02-05T03:22:49.208Z,2.2
2017-02-05T03:23:10.482Z,2.1
2017-02-05T03:23:31.759Z,2.2
2017-02-05T03:23:53.043Z,2.2
2017-02-05T03:24:14.341Z,2.2
2017-02-05T03:24:35.610Z,2.2
2017-02-05T03:24:56.913Z,2.2
2017-02-05T03:25:18.186Z,2.2
2017-02-05T03:25:39.467Z,2.2
2017-02-05T03:26:00.758Z,2.2
2017-02-05T03:26:22.022Z,2.2
2017-02-05T03:26:43.297Z,2.2
2017-02-05T03:27:04.606Z,2.2
2017-02-05T03:27:26.472Z,2.3
2017-02-05T03:27:47.766Z,2.3
2017-02-05T03:28:09.049Z,2.3
2017-02-05T03:28:30.372Z,2.2
2017-02-05T03:28:51.669Z,2.2
2017-02-05T03:29:12.956Z,2.2
2017-02-05T03:29:34.226Z,2.2
2017-02-05T03:29:55.508Z,2.2
2017-02-05T03:30:16.818Z,2.2
2017-02-05T03:30:38.111Z,2.2
2017-02-05T03:30:59.427Z,2.2
2017-02-05T03:31:20.705Z,2.2
2017-02-05T03:31:42.016Z,2.2
2017-02-05T03:32:03.932Z,2.2
2017-02-05T03:32:25.241Z,2.2
2017-02-05T03:32:46.531Z,2.1
2017-02-05T03:33:07.807Z,2.2
2017-02-05T03:33:29.086Z,2.1
2017-02-05T03:33:50.372Z,2.2
2017-02-05T03:34:11.656Z,2.2
2017-02-05T03:34:32.951Z,2.2
2017-02-05T03:34:54.241Z,2.2
2017-02-05T03:35:15.509Z,2.2
2017-02-05T03:35:36.787Z,2.2
2017-02-05T03:35:58.084Z,2.2
2017-02-05T03:36:20.046Z,2.2
2017-02-05T03:36:41.331Z,2.2
2017-02-05T03:37:03.438Z,2.2
2017-02-05T03:37:24.784Z,2.2
2017-02-05T03:37:46.067Z,2.1
2017-02-05T03:38:07.361Z,2.1
2017-02-05T03:38:28.667Z,2.2
2017-02-05T03:38:49.941Z,2.2
2017-02-05T03:39:11.251Z,2.1
2017-02-05T03:39:32.584Z,2.2
2017-02-05T03:39:53.919Z,2.2
2017-02-05T03:40:15.731Z,2.2
2017-02-05T03:40:37.040Z,2.1
2017-02-05T03:40:58.317Z,2.2
2017-02-05T03:41:19.600Z,2.1
2017-02-05T03:41:40.895Z,2.1
2017-02-05T03:42:02.171Z,2.2
2017-02-05T03:42:24.424Z,2.2
2017-02-05T03:42:46.340Z,2.1
2017-02-05T03:43:07.630Z,2.1
2017-02-05T03:43:28.911Z,2.2
2017-02-05T03:43:50.205Z,2.1
2017-02-05T03:44:11.491Z,2.1
2017-02-05T03:44:32.775Z,2.1
2017-02-05T03:44:54.070Z,2.1
2017-02-05T03:45:15.391Z,2.1
2017-02-05T03:45:37.838Z,2.1
2017-02-05T03:45:59.162Z,2.1
2017-02-05T03:46:20.457Z,2.1
2017-02-05T03:46:41.732Z,2.1
2017-02-05T03:47:03.013Z,2
2017-02-05T03:47:24.321Z,2
2017-02-05T03:47:45.611Z,2.1
2017-02-05T03:48:06.885Z,2
2017-02-05T03:48:28.181Z,2.1
2017-02-05T03:48:49.463Z,2
2017-02-05T03:49:10.749Z,2
2017-02-05T03:49:32.057Z,2
2017-02-05T03:49:53.351Z,2
2017-02-05T03:50:14.647Z,2.1
2017-02-05T03:50:35.923Z,2.1
2017-02-05T03:50:57.209Z,2.1
2017-02-05T03:51:18.474Z,2.1
2017-02-05T03:51:39.768Z,2
2017-02-05T03:52:01.049Z,2.1
2017-02-05T03:52:22.319Z,2.1
2017-02-05T03:52:44.289Z,2.1
2017-02-05T03:53:05.579Z,2.1
2017-02-05T03:53:26.861Z,2.1
2017-02-05T03:53:48.141Z,2.1
2017-02-05T03:54:09.435Z,2.1
2017-02-05T03:54:30.746Z,2.2
2017-02-05T03:54:52.025Z,2.2
2017-02-05T03:55:13.322Z,2.1
2017-02-05T03:55:34.613Z,2.2
2017-02-05T03:55:55.893Z,2.1
2017-02-05T03:56:17.182Z,2.1
2017-02-05T03:56:38.483Z,2.1
2017-02-05T03:56:59.785Z,2.1
2017-02-05T03:57:21.652Z,2.1
2017-02-05T03:57:42.973Z,2.1
2017-02-05T03:58:05.072Z,2.2
2017-02-05T03:58:26.356Z,2.1
2017-02-05T03:58:47.650Z,2.1
2017-02-05T03:59:08.925Z,2.2
2017-02-05T03:59:30.220Z,2.2
2017-02-05T03:59:51.512Z,2.1
2017-02-05T04:00:12.834Z,2.1
2017-02-05T04:00:34.118Z,2.1
2017-02-05T04:00:55.397Z,2.2
2017-02-05T04:01:16.690Z,2.1
2017-02-05T04:01:37.983Z,2.2
2017-02-05T04:01:59.286Z,2.1
2017-02-05T04:02:20.576Z,2.1
2017-02-05T04:02:42.794Z,2.1
2017-02-05T04:03:04.112Z,2.2
2017-02-05T04:03:25.399Z,2.2
2017-02-05T04:03:46.690Z,2.2
2017-02-05T04:04:07.984Z,2.1
2017-02-05T04:04:29.259Z,2.1
2017-02-05T04:04:50.537Z,2.1
2017-02-05T04:05:11.831Z,2.1
2017-02-05T04:05:34.073Z,2.1
2017-02-05T04:05:55.369Z,2.2
2017-02-05T04:06:16.657Z,2.2
2017-02-05T04:06:37.961Z,2.2
2017-02-05T04:06:59.279Z,2.1
2017-02-05T04:07:20.577Z,2.1
2017-02-05T04:07:41.860Z,2.2
2017-02-05T04:08:03.133Z,2.1
2017-02-05T04:08:24.438Z,2.1
2017-02-05T04:08:45.747Z,2.1
2017-02-05T04:09:07.039Z,2.1
2017-02-05T04:09:28.379Z,2.1
2017-02-05T04:09:49.653Z,2.1
2017-02-05T04:10:10.965Z,2.1
2017-02-05T04:10:32.243Z,2.1
2017-02-05T04:10:53.537Z,2.1
2017-02-05T04:11:14.816Z,2.1
2017-02-05T04:11:36.096Z,2.1
2017-02-05T04:11:57.409Z,2.1
2017-02-05T04:12:18.708Z,2.1
2017-02-05T04:12:39.997Z,2.2
2017-02-05T04:13:01.294Z,2.1
2017-02-05T04:13:22.646Z,2.1
2017-02-05T04:13:43.937Z,2.1
2017-02-05T04:14:05.228Z,2
2017-02-05T04:14:26.521Z,2.1
2017-02-05T04:14:47.817Z,2.1
2017-02-05T04:15:09.999Z,2.1
2017-02-05T04:15:31.299Z,2.1
2017-02-05T04:15:52.574Z,2.1
2017-02-05T04:16:13.872Z,2.1
2017-02-05T04:16:35.162Z,2.1
2017-02-05T04:16:56.454Z,2.1
2017-02-05T04:17:17.754Z,2.1
2017-02-05T04:17:39.059Z,2.1
2017-02-05T04:18:00.951Z,2.1
2017-02-05T04:18:22.274Z,2.1
2017-02-05T04:18:43.565Z,2.1
2017-02-05T04:19:04.855Z,2.1
2017-02-05T04:19:26.217Z,2.1
2017-02-05T04:19:47.541Z,2.1
2017-02-05T04:20:08.830Z,2.1
2017-02-05T04:20:30.130Z,2.2
2017-02-05T04:20:51.424Z,2.1
2017-02-05T04:21:14.353Z,2.1
2017-02-05T04:21:35.650Z,2.2
2017-02-05T04:21:56.935Z,2.2
2017-02-05T04:22:18.219Z,2.1
2017-02-05T04:22:39.512Z,2.2
2017-02-05T04:23:00.787Z,2.1
2017-02-05T04:23:22.065Z,2.2
2017-02-05T04:23:43.347Z,2.1
2017-02-05T04:24:04.635Z,2.2
2017-02-05T04:24:25.921Z,2.2
2017-02-05T04:24:47.196Z,2.1
2017-02-05T04:25:08.480Z,2.2
2017-02-05T04:25:29.748Z,2.1
2017-02-05T04:25:51.069Z,2.2
2017-02-05T04:26:12.358Z,2.2
2017-02-05T04:26:33.648Z,2.1
2017-02-05T04:26:54.930Z,2.2
2017-02-05T04:27:16.269Z,2.1
2017-02-05T04:27:37.556Z,2.1
2017-02-05T04:27:58.834Z,2.1
2017-02-05T04:28:20.116Z,2.2
2017-02-05T04:28:41.426Z,2.1
2017-02-05T04:29:02.707Z,2.1
2017-02-05T04:29:24.008Z,2.1
2017-02-05T04:29:45.304Z,2
2017-02-05T04:30:06.592Z,2.1
2017-02-05T04:30:27.945Z,2.1
2017-02-05T04:30:49.273Z,2.1
2017-02-05T04:31:10.551Z,2.1
2017-02-05T04:31:31.854Z,2.1
2017-02-05T04:31:53.138Z,2
2017-02-05T04:32:14.428Z,2
2017-02-05T04:32:35.722Z,2
2017-02-05T04:32:57.013Z,2.1
2017-02-05T04:33:18.311Z,2
2017-02-05T04:33:39.606Z,2
2017-02-05T04:34:00.892Z,2
2017-02-05T04:34:22.164Z,2
2017-02-05T04:34:43.457Z,2
2017-02-05T04:35:04.729Z,2.1
2017-02-05T04:35:26.015Z,2
2017-02-05T04:35:47.304Z,2
2017-02-05T04:36:08.571Z,2
2017-02-05T04:36:29.880Z,2
2017-02-05T04:36:51.178Z,2
2017-02-05T04:37:13.163Z,2
2017-02-05T04:37:34.456Z,2
2017-02-05T04:37:55.731Z,2
2017-02-05T04:38:17.015Z,2
2017-02-05T04:38:38.335Z,2
2017-02-05T04:38:59.613Z,2
2017-02-05T04:39:21.171Z,2
2017-02-05T04:39:42.464Z,2.1
2017-02-05T04:40:03.759Z,2
2017-02-05T04:40:25.051Z,2.1
2017-02-05T04:40:46.328Z,2
2017-02-05T04:41:07.613Z,2.1
2017-02-05T04:41:28.913Z,2.1
2017-02-05T04:41:50.200Z,2
2017-02-05T04:42:11.499Z,2
2017-02-05T04:42:32.804Z,2
2017-02-05T04:42:54.135Z,2.1
2017-02-05T04:43:15.418Z,2.1
2017-02-05T04:43:36.704Z,2.1
2017-02-05T04:43:58.003Z,2.1
2017-02-05T04:44:19.304Z,2.2
2017-02-05T04:44:40.605Z,2.2
2017-02-05T04:45:01.897Z,2.2
2017-02-05T04:45:23.195Z,2.2
2017-02-05T04:45:44.499Z,2.2
2017-02-05T04:46:05.809Z,2.2
2017-02-05T04:46:27.101Z,2.1
2017-02-05T04:46:48.390Z,2.1
2017-02-05T04:47:09.666Z,2.2
2017-02-05T04:47:30.983Z,2.2
2017-02-05T04:47:52.260Z,2.2
2017-02-05T04:48:13.566Z,2.2
2017-02-05T04:48:34.851Z,2.2
2017-02-05T04:48:56.143Z,2.2
2017-02-05T04:49:17.462Z,2.2
2017-02-05T04:49:38.746Z,2.2
2017-02-05T04:50:01.688Z,2.2
2017-02-05T04:50:22.979Z,2.2
2017-02-05T04:50:44.285Z,2.2
2017-02-05T04:51:05.610Z,2.3
2017-02-05T04:51:26.932Z,2.4
2017-02-05T04:51:48.224Z,2.2
2017-02-05T04:52:09.498Z,2.3
2017-02-05T04:52:30.779Z,2.3
2017-02-05T04:52:52.962Z,2.2
2017-02-05T04:53:14.811Z,2.3
2017-02-05T04:53:36.107Z,2.3
2017-02-05T04:53:57.407Z,2.2
2017-02-05T04:54:18.729Z,2.3
2017-02-05T04:54:40.008Z,2.3
2017-02-05T04:55:01.286Z,2.3
2017-02-05T04:55:22.583Z,2.3
2017-02-05T04:55:43.862Z,2.3
2017-02-05T04:56:05.890Z,2.2